sensor_id;sensor_type;location;lat;lon;timestamp;P1;durP1;ratioP1;P2;durP2;ratioP2
11951;SDS011;6036;41.840;23.486;2022-11-14T00:02:07;4.55;;;1.95;;
11951;SDS011;6036;41.840;23.486;2022-11-14T00:04:32;2.83;;;1.80;;
11951;SDS011;6036;41.840;23.486;2022-11-14T00:06:58;6.45;;;2.22;;
11951;SDS011;6036;41.840;23.486;2022-11-14T00:09:24;4.13;;;2.10;;
11951;SDS011;6036;41.840;23.486;2022-11-14T00:11:52;3.90;;;2.60;;
11951;SDS011;6036;41.840;23.486;2022-11-14T00:14:18;4.28;;;2.72;;
11951;SDS011;6036;41.840;23.486;2022-11-14T00:16:44;4.75;;;2.58;;
11951;SDS011;6036;41.840;23.486;2022-11-14T00:19:09;5.35;;;3.38;;
11951;SDS011;6036;41.840;23.486;2022-11-14T00:21:35;5.70;;;3.05;;
11951;SDS011;6036;41.840;23.486;2022-11-14T00:24:00;4.93;;;2.67;;
11951;SDS011;6036;41.840;23.486;2022-11-14T00:26:26;4.65;;;1.88;;
11951;SDS011;6036;41.840;23.486;2022-11-14T00:28:52;4.10;;;2.30;;
11951;SDS011;6036;41.840;23.486;2022-11-14T00:31:18;5.15;;;2.35;;
11951;SDS011;6036;41.840;23.486;2022-11-14T00:33:44;4.20;;;2.50;;
11951;SDS011;6036;41.840;23.486;2022-11-14T00:36:09;5.07;;;2.28;;
11951;SDS011;6036;41.840;23.486;2022-11-14T00:38:34;4.15;;;2.10;;
11951;SDS011;6036;41.840;23.486;2022-11-14T00:41:00;3.55;;;2.28;;
11951;SDS011;6036;41.840;23.486;2022-11-14T00:43:25;3.10;;;1.98;;
11951;SDS011;6036;41.840;23.486;2022-11-14T00:45:51;3.75;;;2.10;;
11951;SDS011;6036;41.840;23.486;2022-11-14T00:48:16;7.25;;;2.10;;
11951;SDS011;6036;41.840;23.486;2022-11-14T00:50:42;5.68;;;2.00;;
11951;SDS011;6036;41.840;23.486;2022-11-14T00:53:08;3.40;;;1.42;;
11951;SDS011;6036;41.840;23.486;2022-11-14T00:55:33;3.35;;;1.98;;
11951;SDS011;6036;41.840;23.486;2022-11-14T00:57:59;2.67;;;1.40;;
11951;SDS011;6036;41.840;23.486;2022-11-14T01:00:24;2.75;;;1.50;;
11951;SDS011;6036;41.840;23.486;2022-11-14T01:02:49;1.77;;;1.20;;
11951;SDS011;6036;41.840;23.486;2022-11-14T01:05:15;3.35;;;1.38;;
11951;SDS011;6036;41.840;23.486;2022-11-14T01:07:40;1.95;;;1.40;;
11951;SDS011;6036;41.840;23.486;2022-11-14T01:10:06;2.38;;;1.40;;
11951;SDS011;6036;41.840;23.486;2022-11-14T01:12:32;2.00;;;1.33;;
11951;SDS011;6036;41.840;23.486;2022-11-14T01:14:58;3.67;;;1.40;;
11951;SDS011;6036;41.840;23.486;2022-11-14T01:17:23;3.45;;;2.03;;
11951;SDS011;6036;41.840;23.486;2022-11-14T01:19:52;4.05;;;1.90;;
11951;SDS011;6036;41.840;23.486;2022-11-14T01:22:18;4.32;;;2.50;;
11951;SDS011;6036;41.840;23.486;2022-11-14T01:24:43;4.57;;;2.50;;
11951;SDS011;6036;41.840;23.486;2022-11-14T01:27:09;3.92;;;2.03;;
11951;SDS011;6036;41.840;23.486;2022-11-14T01:29:34;4.72;;;2.05;;
11951;SDS011;6036;41.840;23.486;2022-11-14T01:32:00;4.93;;;2.88;;
11951;SDS011;6036;41.840;23.486;2022-11-14T01:34:25;4.57;;;2.65;;
11951;SDS011;6036;41.840;23.486;2022-11-14T01:36:51;5.88;;;2.97;;
11951;SDS011;6036;41.840;23.486;2022-11-14T01:39:16;4.22;;;2.65;;
11951;SDS011;6036;41.840;23.486;2022-11-14T01:41:42;3.42;;;2.20;;
11951;SDS011;6036;41.840;23.486;2022-11-14T01:44:11;4.18;;;2.40;;
11951;SDS011;6036;41.840;23.486;2022-11-14T01:46:40;5.18;;;2.22;;
11951;SDS011;6036;41.840;23.486;2022-11-14T01:54:18;3.28;;;2.33;;
11951;SDS011;6036;41.840;23.486;2022-11-14T01:56:48;3.60;;;2.38;;
11951;SDS011;6036;41.840;23.486;2022-11-14T01:59:21;4.70;;;2.80;;
11951;SDS011;6036;41.840;23.486;2022-11-14T02:01:52;3.70;;;2.25;;
11951;SDS011;6036;41.840;23.486;2022-11-14T02:04:22;4.53;;;2.35;;
11951;SDS011;6036;41.840;23.486;2022-11-14T02:06:53;9.27;;;2.72;;
11951;SDS011;6036;41.840;23.486;2022-11-14T02:09:23;2.92;;;1.80;;
11951;SDS011;6036;41.840;23.486;2022-11-14T02:11:49;4.32;;;2.55;;
11951;SDS011;6036;41.840;23.486;2022-11-14T02:14:17;4.03;;;2.45;;
11951;SDS011;6036;41.840;23.486;2022-11-14T02:16:43;3.75;;;2.17;;
11951;SDS011;6036;41.840;23.486;2022-11-14T02:19:09;6.35;;;2.65;;
11951;SDS011;6036;41.840;23.486;2022-11-14T02:21:34;7.07;;;2.95;;
11951;SDS011;6036;41.840;23.486;2022-11-14T02:24:00;5.85;;;3.30;;
11951;SDS011;6036;41.840;23.486;2022-11-14T02:26:26;5.18;;;2.80;;
11951;SDS011;6036;41.840;23.486;2022-11-14T02:28:52;7.38;;;2.90;;
11951;SDS011;6036;41.840;23.486;2022-11-14T02:31:18;4.72;;;2.95;;
11951;SDS011;6036;41.840;23.486;2022-11-14T02:33:44;6.28;;;3.53;;
11951;SDS011;6036;41.840;23.486;2022-11-14T02:36:09;7.18;;;5.03;;
11951;SDS011;6036;41.840;23.486;2022-11-14T02:38:34;8.77;;;4.53;;
11951;SDS011;6036;41.840;23.486;2022-11-14T02:41:00;8.68;;;4.72;;
11951;SDS011;6036;41.840;23.486;2022-11-14T02:43:26;6.88;;;3.78;;
11951;SDS011;6036;41.840;23.486;2022-11-14T02:45:52;6.70;;;3.22;;
11951;SDS011;6036;41.840;23.486;2022-11-14T02:48:18;4.60;;;3.20;;
11951;SDS011;6036;41.840;23.486;2022-11-14T02:50:43;4.97;;;1.80;;
11951;SDS011;6036;41.840;23.486;2022-11-14T02:53:09;9.07;;;2.08;;
11951;SDS011;6036;41.840;23.486;2022-11-14T02:55:34;3.63;;;2.20;;
11951;SDS011;6036;41.840;23.486;2022-11-14T02:58:00;4.50;;;1.83;;
11951;SDS011;6036;41.840;23.486;2022-11-14T03:00:25;4.40;;;2.65;;
11951;SDS011;6036;41.840;23.486;2022-11-14T03:02:51;4.70;;;2.53;;
11951;SDS011;6036;41.840;23.486;2022-11-14T03:05:17;4.03;;;2.63;;
11951;SDS011;6036;41.840;23.486;2022-11-14T03:07:43;4.30;;;2.15;;
11951;SDS011;6036;41.840;23.486;2022-11-14T03:10:08;3.30;;;2.13;;
11951;SDS011;6036;41.840;23.486;2022-11-14T03:12:35;4.43;;;2.33;;
11951;SDS011;6036;41.840;23.486;2022-11-14T03:15:00;5.13;;;2.20;;
11951;SDS011;6036;41.840;23.486;2022-11-14T03:17:29;2.55;;;1.83;;
11951;SDS011;6036;41.840;23.486;2022-11-14T03:19:56;3.63;;;1.52;;
11951;SDS011;6036;41.840;23.486;2022-11-14T03:22:22;4.38;;;1.33;;
11951;SDS011;6036;41.840;23.486;2022-11-14T03:24:47;2.80;;;1.65;;
11951;SDS011;6036;41.840;23.486;2022-11-14T03:27:12;2.40;;;1.40;;
11951;SDS011;6036;41.840;23.486;2022-11-14T03:29:38;4.75;;;1.85;;
11951;SDS011;6036;41.840;23.486;2022-11-14T03:32:03;2.10;;;1.42;;
11951;SDS011;6036;41.840;23.486;2022-11-14T03:34:29;2.92;;;1.70;;
11951;SDS011;6036;41.840;23.486;2022-11-14T03:36:54;3.03;;;1.58;;
11951;SDS011;6036;41.840;23.486;2022-11-14T03:39:20;3.90;;;2.38;;
11951;SDS011;6036;41.840;23.486;2022-11-14T03:41:45;3.38;;;1.90;;
11951;SDS011;6036;41.840;23.486;2022-11-14T03:44:11;3.30;;;1.70;;
11951;SDS011;6036;41.840;23.486;2022-11-14T03:46:36;4.50;;;2.58;;
11951;SDS011;6036;41.840;23.486;2022-11-14T03:49:02;3.75;;;1.95;;
11951;SDS011;6036;41.840;23.486;2022-11-14T03:51:27;4.65;;;2.17;;
11951;SDS011;6036;41.840;23.486;2022-11-14T03:53:53;4.00;;;2.10;;
11951;SDS011;6036;41.840;23.486;2022-11-14T03:56:18;4.65;;;2.15;;
11951;SDS011;6036;41.840;23.486;2022-11-14T03:58:43;5.05;;;2.28;;
11951;SDS011;6036;41.840;23.486;2022-11-14T04:01:09;3.67;;;2.38;;
11951;SDS011;6036;41.840;23.486;2022-11-14T04:03:34;9.25;;;2.83;;
11951;SDS011;6036;41.840;23.486;2022-11-14T04:06:00;4.40;;;2.63;;
11951;SDS011;6036;41.840;23.486;2022-11-14T04:08:25;4.95;;;2.80;;
11951;SDS011;6036;41.840;23.486;2022-11-14T04:10:50;3.85;;;2.63;;
11951;SDS011;6036;41.840;23.486;2022-11-14T04:13:16;5.85;;;2.60;;
11951;SDS011;6036;41.840;23.486;2022-11-14T04:15:41;4.75;;;3.22;;
11951;SDS011;6036;41.840;23.486;2022-11-14T04:18:07;4.65;;;3.15;;
11951;SDS011;6036;41.840;23.486;2022-11-14T04:20:32;5.13;;;2.72;;
11951;SDS011;6036;41.840;23.486;2022-11-14T04:22:57;7.28;;;2.75;;
11951;SDS011;6036;41.840;23.486;2022-11-14T04:25:23;6.88;;;3.33;;
11951;SDS011;6036;41.840;23.486;2022-11-14T04:27:48;8.52;;;2.95;;
11951;SDS011;6036;41.840;23.486;2022-11-14T04:30:14;5.65;;;3.55;;
11951;SDS011;6036;41.840;23.486;2022-11-14T04:32:39;6.50;;;3.47;;
11951;SDS011;6036;41.840;23.486;2022-11-14T04:35:05;5.88;;;3.72;;
11951;SDS011;6036;41.840;23.486;2022-11-14T04:37:30;6.95;;;3.20;;
11951;SDS011;6036;41.840;23.486;2022-11-14T04:39:56;5.93;;;3.10;;
11951;SDS011;6036;41.840;23.486;2022-11-14T04:42:24;5.47;;;3.08;;
11951;SDS011;6036;41.840;23.486;2022-11-14T04:44:50;8.05;;;3.60;;
11951;SDS011;6036;41.840;23.486;2022-11-14T04:47:15;5.20;;;2.70;;
11951;SDS011;6036;41.840;23.486;2022-11-14T04:49:41;6.78;;;2.97;;
11951;SDS011;6036;41.840;23.486;2022-11-14T04:52:06;4.72;;;3.17;;
11951;SDS011;6036;41.840;23.486;2022-11-14T04:54:32;7.15;;;3.70;;
11951;SDS011;6036;41.840;23.486;2022-11-14T04:56:57;7.82;;;4.30;;
11951;SDS011;6036;41.840;23.486;2022-11-14T04:59:23;7.45;;;4.38;;
11951;SDS011;6036;41.840;23.486;2022-11-14T05:01:48;7.63;;;4.28;;
11951;SDS011;6036;41.840;23.486;2022-11-14T05:04:14;7.15;;;3.65;;
11951;SDS011;6036;41.840;23.486;2022-11-14T05:06:39;6.90;;;3.30;;
11951;SDS011;6036;41.840;23.486;2022-11-14T05:09:05;6.07;;;3.35;;
11951;SDS011;6036;41.840;23.486;2022-11-14T05:11:30;6.63;;;3.95;;
11951;SDS011;6036;41.840;23.486;2022-11-14T05:13:56;9.77;;;4.75;;
11951;SDS011;6036;41.840;23.486;2022-11-14T05:16:21;8.95;;;6.20;;
11951;SDS011;6036;41.840;23.486;2022-11-14T05:18:47;8.48;;;5.72;;
11951;SDS011;6036;41.840;23.486;2022-11-14T05:21:13;6.53;;;3.90;;
11951;SDS011;6036;41.840;23.486;2022-11-14T05:23:39;5.20;;;3.10;;
11951;SDS011;6036;41.840;23.486;2022-11-14T05:26:06;4.18;;;2.53;;
11951;SDS011;6036;41.840;23.486;2022-11-14T05:28:33;4.45;;;2.70;;
11951;SDS011;6036;41.840;23.486;2022-11-14T05:31:08;4.03;;;2.30;;
11951;SDS011;6036;41.840;23.486;2022-11-14T05:33:37;4.53;;;2.67;;
11951;SDS011;6036;41.840;23.486;2022-11-14T05:36:06;4.25;;;3.05;;
11951;SDS011;6036;41.840;23.486;2022-11-14T05:38:34;4.18;;;2.00;;
11951;SDS011;6036;41.840;23.486;2022-11-14T05:41:03;4.60;;;2.90;;
11951;SDS011;6036;41.840;23.486;2022-11-14T05:43:33;5.85;;;2.40;;
11951;SDS011;6036;41.840;23.486;2022-11-14T05:45:59;3.97;;;3.00;;
11951;SDS011;6036;41.840;23.486;2022-11-14T05:48:25;10.20;;;4.75;;
11951;SDS011;6036;41.840;23.486;2022-11-14T05:50:54;6.57;;;3.55;;
11951;SDS011;6036;41.840;23.486;2022-11-14T05:53:24;9.10;;;3.90;;
11951;SDS011;6036;41.840;23.486;2022-11-14T05:55:50;9.25;;;3.55;;
11951;SDS011;6036;41.840;23.486;2022-11-14T05:58:16;10.43;;;4.07;;
11951;SDS011;6036;41.840;23.486;2022-11-14T06:00:41;5.55;;;3.13;;
11951;SDS011;6036;41.840;23.486;2022-11-14T06:03:06;7.38;;;4.10;;
11951;SDS011;6036;41.840;23.486;2022-11-14T06:05:33;6.65;;;3.40;;
11951;SDS011;6036;41.840;23.486;2022-11-14T06:07:59;5.03;;;3.95;;
11951;SDS011;6036;41.840;23.486;2022-11-14T06:10:25;4.45;;;3.03;;
11951;SDS011;6036;41.840;23.486;2022-11-14T06:12:51;5.35;;;2.75;;
11951;SDS011;6036;41.840;23.486;2022-11-14T06:15:16;4.50;;;2.70;;
11951;SDS011;6036;41.840;23.486;2022-11-14T06:17:42;3.63;;;2.33;;
11951;SDS011;6036;41.840;23.486;2022-11-14T06:20:08;4.13;;;2.90;;
11951;SDS011;6036;41.840;23.486;2022-11-14T06:22:33;8.43;;;3.92;;
11951;SDS011;6036;41.840;23.486;2022-11-14T06:25:00;5.50;;;2.95;;
11951;SDS011;6036;41.840;23.486;2022-11-14T06:27:26;5.57;;;3.20;;
11951;SDS011;6036;41.840;23.486;2022-11-14T06:29:51;4.32;;;2.85;;
11951;SDS011;6036;41.840;23.486;2022-11-14T06:32:17;15.25;;;10.32;;
11951;SDS011;6036;41.840;23.486;2022-11-14T06:34:42;91.03;;;41.47;;
11951;SDS011;6036;41.840;23.486;2022-11-14T06:37:08;85.85;;;47.65;;
11951;SDS011;6036;41.840;23.486;2022-11-14T06:39:33;79.70;;;45.65;;
11951;SDS011;6036;41.840;23.486;2022-11-14T06:41:59;81.70;;;48.15;;
11951;SDS011;6036;41.840;23.486;2022-11-14T06:44:24;63.80;;;39.08;;
11951;SDS011;6036;41.840;23.486;2022-11-14T06:46:50;36.90;;;25.73;;
11951;SDS011;6036;41.840;23.486;2022-11-14T06:49:15;27.25;;;18.85;;
11951;SDS011;6036;41.840;23.486;2022-11-14T06:51:40;31.95;;;22.35;;
11951;SDS011;6036;41.840;23.486;2022-11-14T06:54:06;24.52;;;17.05;;
11951;SDS011;6036;41.840;23.486;2022-11-14T06:56:31;18.65;;;15.68;;
11951;SDS011;6036;41.840;23.486;2022-11-14T06:58:57;18.40;;;12.88;;
11951;SDS011;6036;41.840;23.486;2022-11-14T07:01:23;22.73;;;17.02;;
11951;SDS011;6036;41.840;23.486;2022-11-14T07:03:52;23.83;;;17.55;;
11951;SDS011;6036;41.840;23.486;2022-11-14T07:06:21;19.90;;;15.27;;
11951;SDS011;6036;41.840;23.486;2022-11-14T07:08:48;18.65;;;15.23;;
11951;SDS011;6036;41.840;23.486;2022-11-14T07:11:15;22.40;;;16.42;;
11951;SDS011;6036;41.840;23.486;2022-11-14T07:13:48;31.08;;;21.15;;
11951;SDS011;6036;41.840;23.486;2022-11-14T07:16:15;34.55;;;22.77;;
11951;SDS011;6036;41.840;23.486;2022-11-14T07:18:40;24.15;;;15.85;;
11951;SDS011;6036;41.840;23.486;2022-11-14T07:21:06;18.23;;;14.77;;
11951;SDS011;6036;41.840;23.486;2022-11-14T07:23:32;24.83;;;17.83;;
11951;SDS011;6036;41.840;23.486;2022-11-14T07:26:01;28.65;;;22.30;;
11951;SDS011;6036;41.840;23.486;2022-11-14T07:28:31;33.53;;;23.33;;
11951;SDS011;6036;41.840;23.486;2022-11-14T07:30:58;37.28;;;25.60;;
11951;SDS011;6036;41.840;23.486;2022-11-14T07:33:23;33.00;;;22.33;;
11951;SDS011;6036;41.840;23.486;2022-11-14T07:35:49;32.40;;;20.98;;
11951;SDS011;6036;41.840;23.486;2022-11-14T07:38:15;31.15;;;20.75;;
11951;SDS011;6036;41.840;23.486;2022-11-14T07:40:41;37.70;;;25.10;;
11951;SDS011;6036;41.840;23.486;2022-11-14T07:43:06;41.50;;;25.48;;
11951;SDS011;6036;41.840;23.486;2022-11-14T07:45:31;41.95;;;26.77;;
11951;SDS011;6036;41.840;23.486;2022-11-14T07:47:58;49.88;;;28.67;;
11951;SDS011;6036;41.840;23.486;2022-11-14T07:50:26;49.35;;;27.40;;
11951;SDS011;6036;41.840;23.486;2022-11-14T07:52:53;46.47;;;28.75;;
11951;SDS011;6036;41.840;23.486;2022-11-14T07:55:20;43.20;;;24.70;;
11951;SDS011;6036;41.840;23.486;2022-11-14T07:57:46;38.00;;;24.27;;
11951;SDS011;6036;41.840;23.486;2022-11-14T08:00:12;42.38;;;27.05;;
11951;SDS011;6036;41.840;23.486;2022-11-14T08:02:39;42.80;;;26.17;;
11951;SDS011;6036;41.840;23.486;2022-11-14T08:05:04;35.60;;;23.33;;
11951;SDS011;6036;41.840;23.486;2022-11-14T08:07:30;33.45;;;24.08;;
11951;SDS011;6036;41.840;23.486;2022-11-14T08:09:56;38.22;;;26.63;;
11951;SDS011;6036;41.840;23.486;2022-11-14T08:12:21;38.85;;;27.52;;
11951;SDS011;6036;41.840;23.486;2022-11-14T08:14:47;37.00;;;24.70;;
11951;SDS011;6036;41.840;23.486;2022-11-14T08:17:12;35.35;;;25.02;;
11951;SDS011;6036;41.840;23.486;2022-11-14T08:19:38;35.60;;;24.92;;
11951;SDS011;6036;41.840;23.486;2022-11-14T08:22:03;38.10;;;27.13;;
11951;SDS011;6036;41.840;23.486;2022-11-14T08:24:28;36.08;;;27.15;;
11951;SDS011;6036;41.840;23.486;2022-11-14T08:26:54;37.78;;;26.77;;
11951;SDS011;6036;41.840;23.486;2022-11-14T08:29:19;39.90;;;27.48;;
11951;SDS011;6036;41.840;23.486;2022-11-14T08:31:45;41.33;;;26.83;;
11951;SDS011;6036;41.840;23.486;2022-11-14T08:34:10;41.55;;;28.52;;
11951;SDS011;6036;41.840;23.486;2022-11-14T08:36:36;40.60;;;27.77;;
11951;SDS011;6036;41.840;23.486;2022-11-14T08:39:02;37.97;;;28.60;;
11951;SDS011;6036;41.840;23.486;2022-11-14T08:41:27;38.35;;;30.52;;
11951;SDS011;6036;41.840;23.486;2022-11-14T08:43:53;39.78;;;28.90;;
11951;SDS011;6036;41.840;23.486;2022-11-14T08:46:19;36.40;;;27.85;;
11951;SDS011;6036;41.840;23.486;2022-11-14T08:48:44;38.50;;;27.85;;
11951;SDS011;6036;41.840;23.486;2022-11-14T08:51:09;38.33;;;28.00;;
11951;SDS011;6036;41.840;23.486;2022-11-14T08:53:35;33.92;;;26.45;;
11951;SDS011;6036;41.840;23.486;2022-11-14T08:56:00;41.33;;;28.45;;
11951;SDS011;6036;41.840;23.486;2022-11-14T08:58:27;39.70;;;28.65;;
11951;SDS011;6036;41.840;23.486;2022-11-14T09:00:58;38.97;;;28.15;;
11951;SDS011;6036;41.840;23.486;2022-11-14T09:03:24;35.65;;;27.30;;
11951;SDS011;6036;41.840;23.486;2022-11-14T09:05:50;41.53;;;29.55;;
11951;SDS011;6036;41.840;23.486;2022-11-14T09:08:16;37.35;;;30.63;;
11951;SDS011;6036;41.840;23.486;2022-11-14T09:10:42;33.55;;;26.33;;
11951;SDS011;6036;41.840;23.486;2022-11-14T09:13:07;39.78;;;31.25;;
11951;SDS011;6036;41.840;23.486;2022-11-14T09:15:33;39.78;;;30.98;;
11951;SDS011;6036;41.840;23.486;2022-11-14T09:17:58;38.17;;;29.98;;
11951;SDS011;6036;41.840;23.486;2022-11-14T09:20:24;43.20;;;32.25;;
11951;SDS011;6036;41.840;23.486;2022-11-14T09:22:50;41.75;;;30.88;;
11951;SDS011;6036;41.840;23.486;2022-11-14T09:25:18;38.90;;;30.60;;
11951;SDS011;6036;41.840;23.486;2022-11-14T09:27:44;34.72;;;27.23;;
11951;SDS011;6036;41.840;23.486;2022-11-14T09:30:10;40.28;;;27.55;;
11951;SDS011;6036;41.840;23.486;2022-11-14T09:32:36;33.22;;;26.33;;
11951;SDS011;6036;41.840;23.486;2022-11-14T09:35:01;30.90;;;24.20;;
11951;SDS011;6036;41.840;23.486;2022-11-14T09:37:27;29.52;;;23.17;;
11951;SDS011;6036;41.840;23.486;2022-11-14T09:39:52;29.90;;;24.70;;
11951;SDS011;6036;41.840;23.486;2022-11-14T09:45:20;27.75;;;23.55;;
11951;SDS011;6036;41.840;23.486;2022-11-14T09:47:53;28.42;;;24.17;;
11951;SDS011;6036;41.840;23.486;2022-11-14T09:50:28;29.63;;;24.23;;
11951;SDS011;6036;41.840;23.486;2022-11-14T09:52:59;28.88;;;23.60;;
11951;SDS011;6036;41.840;23.486;2022-11-14T09:55:30;29.67;;;22.58;;
11951;SDS011;6036;41.840;23.486;2022-11-14T09:57:57;25.08;;;21.00;;
11951;SDS011;6036;41.840;23.486;2022-11-14T10:00:24;27.17;;;20.38;;
11951;SDS011;6036;41.840;23.486;2022-11-14T10:05:53;27.80;;;20.92;;
11951;SDS011;6036;41.840;23.486;2022-11-14T10:11:08;27.17;;;19.58;;
11951;SDS011;6036;41.840;23.486;2022-11-14T10:19:21;27.33;;;17.80;;
11951;SDS011;6036;41.840;23.486;2022-11-14T10:21:53;26.85;;;17.75;;
11951;SDS011;6036;41.840;23.486;2022-11-14T10:24:54;23.40;;;16.13;;
11951;SDS011;6036;41.840;23.486;2022-11-14T10:27:26;22.98;;;16.08;;
11951;SDS011;6036;41.840;23.486;2022-11-14T10:35:14;23.23;;;13.93;;
11951;SDS011;6036;41.840;23.486;2022-11-14T10:37:44;23.83;;;15.30;;
11951;SDS011;6036;41.840;23.486;2022-11-14T10:42:46;24.10;;;15.10;;
11951;SDS011;6036;41.840;23.486;2022-11-14T10:45:17;20.73;;;14.00;;
11951;SDS011;6036;41.840;23.486;2022-11-14T10:48:08;23.10;;;15.07;;
11951;SDS011;6036;41.840;23.486;2022-11-14T10:50:41;23.30;;;14.15;;
11951;SDS011;6036;41.840;23.486;2022-11-14T10:53:17;24.13;;;16.30;;
11951;SDS011;6036;41.840;23.486;2022-11-14T10:56:03;24.33;;;16.55;;
11951;SDS011;6036;41.840;23.486;2022-11-14T10:58:29;28.00;;;17.35;;
11951;SDS011;6036;41.840;23.486;2022-11-14T11:00:54;26.40;;;16.05;;
11951;SDS011;6036;41.840;23.486;2022-11-14T11:03:21;29.00;;;16.70;;
11951;SDS011;6036;41.840;23.486;2022-11-14T11:06:05;24.52;;;15.00;;
11951;SDS011;6036;41.840;23.486;2022-11-14T11:08:48;21.92;;;14.30;;
11951;SDS011;6036;41.840;23.486;2022-11-14T11:11:32;23.17;;;13.60;;
11951;SDS011;6036;41.840;23.486;2022-11-14T11:13:58;12.93;;;8.30;;
11951;SDS011;6036;41.840;23.486;2022-11-14T11:16:25;10.65;;;6.70;;
11951;SDS011;6036;41.840;23.486;2022-11-14T11:18:53;10.88;;;7.88;;
11951;SDS011;6036;41.840;23.486;2022-11-14T11:21:48;10.50;;;5.65;;
11951;SDS011;6036;41.840;23.486;2022-11-14T11:24:34;8.23;;;4.85;;
11951;SDS011;6036;41.840;23.486;2022-11-14T11:27:18;7.50;;;4.80;;
11951;SDS011;6036;41.840;23.486;2022-11-14T11:30:10;6.45;;;4.10;;
11951;SDS011;6036;41.840;23.486;2022-11-14T11:32:44;5.28;;;3.25;;
11951;SDS011;6036;41.840;23.486;2022-11-14T11:35:13;5.18;;;3.40;;
11951;SDS011;6036;41.840;23.486;2022-11-14T11:40:14;5.10;;;2.97;;
11951;SDS011;6036;41.840;23.486;2022-11-14T11:42:57;4.22;;;3.20;;
11951;SDS011;6036;41.840;23.486;2022-11-14T11:45:28;5.55;;;3.13;;
11951;SDS011;6036;41.840;23.486;2022-11-14T11:47:57;4.05;;;2.90;;
11951;SDS011;6036;41.840;23.486;2022-11-14T11:50:43;5.45;;;3.45;;
11951;SDS011;6036;41.840;23.486;2022-11-14T11:53:20;4.32;;;3.08;;
11951;SDS011;6036;41.840;23.486;2022-11-14T11:56:10;3.58;;;2.88;;
11951;SDS011;6036;41.840;23.486;2022-11-14T12:01:19;3.88;;;2.80;;
11951;SDS011;6036;41.840;23.486;2022-11-14T12:03:51;5.35;;;3.08;;
11951;SDS011;6036;41.840;23.486;2022-11-14T12:06:18;5.65;;;3.55;;
11951;SDS011;6036;41.840;23.486;2022-11-14T12:11:47;17.83;;;10.18;;
11951;SDS011;6036;41.840;23.486;2022-11-14T12:14:40;17.00;;;9.95;;
11951;SDS011;6036;41.840;23.486;2022-11-14T12:22:37;12.93;;;7.85;;
11951;SDS011;6036;41.840;23.486;2022-11-14T12:28:22;12.55;;;7.60;;
11951;SDS011;6036;41.840;23.486;2022-11-14T12:30:52;12.80;;;7.40;;
11951;SDS011;6036;41.840;23.486;2022-11-14T12:33:24;10.80;;;6.63;;
11951;SDS011;6036;41.840;23.486;2022-11-14T12:35:56;5.03;;;3.20;;
11951;SDS011;6036;41.840;23.486;2022-11-14T12:38:25;5.40;;;3.08;;
11951;SDS011;6036;41.840;23.486;2022-11-14T12:41:09;5.10;;;2.53;;
11951;SDS011;6036;41.840;23.486;2022-11-14T12:43:37;3.40;;;2.65;;
11951;SDS011;6036;41.840;23.486;2022-11-14T12:46:09;3.97;;;2.28;;
11951;SDS011;6036;41.840;23.486;2022-11-14T12:48:46;3.28;;;2.55;;
11951;SDS011;6036;41.840;23.486;2022-11-14T12:57:14;4.72;;;2.97;;
11951;SDS011;6036;41.840;23.486;2022-11-14T13:00:09;5.82;;;3.30;;
11951;SDS011;6036;41.840;23.486;2022-11-14T13:05:58;5.35;;;2.60;;
11951;SDS011;6036;41.840;23.486;2022-11-14T13:09:36;3.35;;;2.25;;
11951;SDS011;6036;41.840;23.486;2022-11-14T13:11:51;4.50;;;3.05;;
11951;SDS011;6036;41.840;23.486;2022-11-14T13:14:57;3.70;;;1.98;;
11951;SDS011;6036;41.840;23.486;2022-11-14T13:18:02;1.98;;;1.45;;
11951;SDS011;6036;41.840;23.486;2022-11-14T13:21:02;2.10;;;1.70;;
11951;SDS011;6036;41.840;23.486;2022-11-14T13:24:07;2.65;;;1.42;;
11951;SDS011;6036;41.840;23.486;2022-11-14T13:26:34;2.03;;;1.38;;
11951;SDS011;6036;41.840;23.486;2022-11-14T13:29:01;3.22;;;1.92;;
11951;SDS011;6036;41.840;23.486;2022-11-14T13:31:47;1.77;;;1.50;;
11951;SDS011;6036;41.840;23.486;2022-11-14T13:42:22;2.63;;;1.40;;
11951;SDS011;6036;41.840;23.486;2022-11-14T13:45:10;3.67;;;1.40;;
11951;SDS011;6036;41.840;23.486;2022-11-14T13:50:24;3.72;;;1.75;;
11951;SDS011;6036;41.840;23.486;2022-11-14T13:52:53;3.00;;;1.63;;
11951;SDS011;6036;41.840;23.486;2022-11-14T13:58:05;1.35;;;0.73;;
11951;SDS011;6036;41.840;23.486;2022-11-14T14:05:53;5.00;;;1.30;;
11951;SDS011;6036;41.840;23.486;2022-11-14T14:23:34;2.80;;;1.00;;
11951;SDS011;6036;41.840;23.486;2022-11-14T14:32:04;1.63;;;0.90;;
11951;SDS011;6036;41.840;23.486;2022-11-14T14:34:35;0.90;;;0.60;;
11951;SDS011;6036;41.840;23.486;2022-11-14T14:37:01;2.30;;;0.80;;
11951;SDS011;6036;41.840;23.486;2022-11-14T14:39:27;2.60;;;0.80;;
11951;SDS011;6036;41.840;23.486;2022-11-14T14:41:53;3.03;;;1.10;;
11951;SDS011;6036;41.840;23.486;2022-11-14T14:44:31;2.65;;;0.80;;
11951;SDS011;6036;41.840;23.486;2022-11-14T14:47:42;1.98;;;0.65;;
11951;SDS011;6036;41.840;23.486;2022-11-14T14:50:05;1.08;;;0.57;;
11951;SDS011;6036;41.840;23.486;2022-11-14T14:52:39;2.78;;;0.68;;
11951;SDS011;6036;41.840;23.486;2022-11-14T14:55:05;1.75;;;1.23;;
11951;SDS011;6036;41.840;23.486;2022-11-14T14:57:41;2.97;;;1.08;;
11951;SDS011;6036;41.840;23.486;2022-11-14T15:00:15;0.93;;;0.50;;
11951;SDS011;6036;41.840;23.486;2022-11-14T15:02:40;2.30;;;0.80;;
11951;SDS011;6036;41.840;23.486;2022-11-14T15:05:07;0.95;;;0.55;;
11951;SDS011;6036;41.840;23.486;2022-11-14T15:07:33;4.78;;;0.90;;
11951;SDS011;6036;41.840;23.486;2022-11-14T15:10:02;3.75;;;1.10;;
11951;SDS011;6036;41.840;23.486;2022-11-14T15:12:29;0.95;;;0.70;;
11951;SDS011;6036;41.840;23.486;2022-11-14T15:14:56;2.05;;;0.70;;
11951;SDS011;6036;41.840;23.486;2022-11-14T15:17:24;2.22;;;0.90;;
11951;SDS011;6036;41.840;23.486;2022-11-14T15:19:50;2.53;;;1.17;;
11951;SDS011;6036;41.840;23.486;2022-11-14T15:24:43;0.82;;;0.70;;
11951;SDS011;6036;41.840;23.486;2022-11-14T15:27:12;1.30;;;0.85;;
11951;SDS011;6036;41.840;23.486;2022-11-14T15:29:52;3.40;;;0.63;;
11951;SDS011;6036;41.840;23.486;2022-11-14T15:32:22;3.15;;;1.15;;
11951;SDS011;6036;41.840;23.486;2022-11-14T15:40:28;2.70;;;1.27;;
11951;SDS011;6036;41.840;23.486;2022-11-14T15:42:54;1.98;;;1.52;;
11951;SDS011;6036;41.840;23.486;2022-11-14T15:45:21;2.17;;;1.60;;
11951;SDS011;6036;41.840;23.486;2022-11-14T15:48:00;1.80;;;1.50;;
11951;SDS011;6036;41.840;23.486;2022-11-14T15:50:29;1.73;;;0.90;;
11951;SDS011;6036;41.840;23.486;2022-11-14T15:53:04;4.43;;;0.82;;
11951;SDS011;6036;41.840;23.486;2022-11-14T15:55:38;0.88;;;0.50;;
11951;SDS011;6036;41.840;23.486;2022-11-14T15:58:07;1.58;;;0.47;;
11951;SDS011;6036;41.840;23.486;2022-11-14T16:00:34;0.90;;;0.50;;
11951;SDS011;6036;41.840;23.486;2022-11-14T16:02:59;4.93;;;2.25;;
11951;SDS011;6036;41.840;23.486;2022-11-14T16:05:26;2.80;;;1.90;;
11951;SDS011;6036;41.840;23.486;2022-11-14T16:07:53;3.38;;;1.60;;
11951;SDS011;6036;41.840;23.486;2022-11-14T16:10:20;2.17;;;1.50;;
11951;SDS011;6036;41.840;23.486;2022-11-14T16:12:47;2.33;;;0.77;;
11951;SDS011;6036;41.840;23.486;2022-11-14T16:15:13;3.42;;;1.75;;
11951;SDS011;6036;41.840;23.486;2022-11-14T16:17:40;0.90;;;0.80;;
11951;SDS011;6036;41.840;23.486;2022-11-14T16:20:09;1.13;;;0.70;;
11951;SDS011;6036;41.840;23.486;2022-11-14T16:22:41;4.38;;;2.85;;
11951;SDS011;6036;41.840;23.486;2022-11-14T16:25:11;1.10;;;0.88;;
11951;SDS011;6036;41.840;23.486;2022-11-14T16:27:42;1.20;;;1.00;;
11951;SDS011;6036;41.840;23.486;2022-11-14T16:30:09;1.10;;;0.80;;
11951;SDS011;6036;41.840;23.486;2022-11-14T16:32:35;0.88;;;0.50;;